createdAt,value
2023-01-07T00:01:40.165Z,99158.09
2023-01-07T00:04:08.129Z,99156.94
2023-01-07T00:06:36.881Z,99159.06
2023-01-07T00:09:04.582Z,99157.91
2023-01-07T00:11:33.814Z,99152.72
2023-01-07T00:14:01.092Z,99147.34
2023-01-07T00:16:29.933Z,99149.19
2023-01-07T00:18:57.751Z,99145.75
2023-01-07T00:21:25.383Z,99153.91
2023-01-07T00:23:59.838Z,99151.97
2023-01-07T00:26:29.354Z,99149.38
2023-01-07T00:28:56.143Z,99157.44
2023-01-07T00:31:24.959Z,99159.84
2023-01-07T00:34:06.755Z,99156.06
2023-01-07T00:36:44.633Z,99144.66
2023-01-07T00:39:16.685Z,99154.47
2023-01-07T00:42:06.644Z,99153.69
2023-01-07T00:44:33.631Z,99160.69
2023-01-07T00:47:00.987Z,99154.84
2023-01-07T00:49:27.788Z,99164.44
2023-01-07T00:51:54.837Z,99162.91
2023-01-07T00:54:21.564Z,99162.16
2023-01-07T00:56:48.653Z,99163.78
2023-01-07T00:59:15.399Z,99171.09
2023-01-07T01:01:43.014Z,99174.06
2023-01-07T01:04:09.807Z,99178.38
2023-01-07T01:06:36.906Z,99180.22
2023-01-07T01:09:03.813Z,99173.78
2023-01-07T01:11:31.181Z,99180.22
2023-01-07T01:13:57.895Z,99185.78
2023-01-07T01:16:25.021Z,99182.69
2023-01-07T01:18:51.892Z,99187.31
2023-01-07T01:21:19.269Z,99187.31
2023-01-07T01:23:46.208Z,99190.19
2023-01-07T01:26:15.131Z,99186.75
2023-01-07T01:28:42.157Z,99185.00
2023-01-07T01:31:09.401Z,99192.13
2023-01-07T01:33:36.301Z,99195.56
2023-01-07T01:36:05.307Z,99198.44
2023-01-07T01:38:32.064Z,99189.44
2023-01-07T01:45:22.148Z,99192.41
2023-01-07T01:47:56.877Z,99185.41
2023-01-07T01:50:27.977Z,99178.97
2023-01-07T01:53:03.609Z,99187.91
2023-01-07T01:55:37.771Z,99176.38
2023-01-07T01:58:26.030Z,99173.78
2023-01-07T02:00:53.189Z,99181.38
2023-01-07T02:03:20.397Z,99175.03
2023-01-07T02:05:47.472Z,99176.88
2023-01-07T02:08:21.918Z,99173.72
2023-01-07T02:10:54.912Z,99175.53
2023-01-07T02:13:43.369Z,99170.53
2023-01-07T02:16:32.696Z,99177.25
2023-01-07T02:18:59.630Z,99179.66
2023-01-07T02:21:54.315Z,99180.78
2023-01-07T02:24:27.120Z,99181.50
2023-01-07T02:26:54.149Z,99178.00
2023-01-07T02:29:36.164Z,99176.78
2023-01-07T02:32:06.320Z,99172.97
2023-01-07T02:34:33.065Z,99178.53
2023-01-07T02:37:10.422Z,99172.16
2023-01-07T02:39:58.358Z,99170.56
2023-01-07T02:42:39.924Z,99165.09
2023-01-07T02:45:21.129Z,99168.06
2023-01-07T02:47:52.400Z,99158.16
2023-01-07T02:50:19.259Z,99167.19
2023-01-07T02:52:46.508Z,99161.25
2023-01-07T02:55:21.749Z,99165.47
2023-01-07T02:58:13.087Z,99171.91
2023-01-07T03:00:42.852Z,99168.25
2023-01-07T03:03:25.783Z,99171.03
2023-01-07T03:06:21.934Z,99171.31
2023-01-07T03:08:54.955Z,99172.00
2023-01-07T03:11:21.697Z,99172.94
2023-01-07T03:14:09.730Z,99170.16
2023-01-07T03:16:40.569Z,99169.41
2023-01-07T03:19:11.203Z,99161.44
2023-01-07T03:21:37.963Z,99169.75
2023-01-07T03:24:06.243Z,99170.53
2023-01-07T03:26:35.345Z,99168.75
2023-01-07T03:29:03.003Z,99167.06
2023-01-07T03:31:29.971Z,99161.53
2023-01-07T03:33:59.837Z,99166.06
2023-01-07T03:36:30.578Z,99162.72
2023-01-07T03:38:57.692Z,99159.28
2023-01-07T03:41:43.057Z,99162.53
2023-01-07T03:44:10.075Z,99159.28
2023-01-07T03:46:36.815Z,99157.47
2023-01-07T03:49:04.119Z,99152.88
2023-01-07T03:51:30.871Z,99150.38
2023-01-07T03:53:57.943Z,99153.41
2023-01-07T03:56:24.729Z,99160.63
2023-01-07T03:58:51.778Z,99157.66
2023-01-07T04:01:18.646Z,99165.91
2023-01-07T04:03:45.715Z,99163.97
2023-01-07T04:06:12.572Z,99170.69
2023-01-07T04:08:39.660Z,99166.94
2023-01-07T04:11:06.419Z,99170.13
2023-01-07T04:13:33.511Z,99173.78
2023-01-07T04:16:00.258Z,99175.66
2023-01-07T04:18:27.271Z,99174.72
2023-01-07T04:20:53.998Z,99166.38
2023-01-07T04:23:21.019Z,99170.69
2023-01-07T04:25:48.501Z,99170.78
2023-01-07T04:28:15.727Z,99160.22
2023-01-07T04:30:42.569Z,99169.06
2023-01-07T04:33:09.768Z,99162.81
2023-01-07T04:35:36.570Z,99173.56
2023-01-07T04:38:03.620Z,99166.47
2023-01-07T04:40:30.413Z,99176.44
2023-01-07T04:42:57.432Z,99175.69
2023-01-07T04:45:24.157Z,99176.44
2023-01-07T04:47:56.434Z,99177.50
2023-01-07T04:50:23.811Z,99172.91
2023-01-07T04:52:50.879Z,99173.00
2023-01-07T04:55:17.743Z,99176.63
2023-01-07T04:57:44.835Z,99177.59
2023-01-07T05:00:11.953Z,99182.88
2023-01-07T05:02:39.017Z,99182.00
2023-01-07T05:05:06.075Z,99181.22
2023-01-07T05:07:33.181Z,99182.31
2023-01-07T05:09:59.942Z,99184.09
2023-01-07T05:12:27.019Z,99188.44
2023-01-07T05:14:53.753Z,99182.09
2023-01-07T05:17:21.409Z,99190.22
2023-01-07T05:19:48.214Z,99182.31
2023-01-07T05:22:15.255Z,99191.13
2023-01-07T05:24:41.961Z,99184.97
2023-01-07T05:27:09.033Z,99185.94
2023-01-07T05:29:35.791Z,99187.84
2023-01-07T05:32:03.005Z,99184.09
2023-01-07T05:34:29.810Z,99178.06
2023-01-07T05:36:56.898Z,99172.69
2023-01-07T05:39:23.733Z,99174.59
2023-01-07T05:41:50.776Z,99182.66
2023-01-07T05:44:17.537Z,99180.66
2023-01-07T05:46:44.665Z,99186.97
2023-01-07T05:49:11.431Z,99179.22
2023-01-07T05:51:38.498Z,99179.22
2023-01-07T05:54:05.274Z,99176.63
2023-01-07T05:56:32.427Z,99174.03
2023-01-07T05:58:59.170Z,99178.25
2023-01-07T06:01:27.124Z,99180.81
2023-01-07T06:03:53.938Z,99172.88
2023-01-07T06:06:21.014Z,99175.47
2023-01-07T06:08:47.755Z,99173.53
2023-01-07T06:11:14.814Z,99179.22
2023-01-07T06:13:41.593Z,99167.59
2023-01-07T06:16:09.415Z,99167.69
2023-01-07T06:18:36.311Z,99166.81
2023-01-07T06:21:03.559Z,99174.13
2023-01-07T06:23:31.394Z,99184.38
2023-01-07T06:25:58.481Z,99185.63
2023-01-07T06:28:25.249Z,99185.34
2023-01-07T06:30:52.461Z,99187.34
2023-01-07T06:33:19.333Z,99191.00
2023-01-07T06:35:46.648Z,99193.19
2023-01-07T06:38:13.378Z,99188.56
2023-01-07T06:40:40.432Z,99185.78
2023-01-07T06:43:07.169Z,99185.13
2023-01-07T06:45:34.187Z,99186.88
2023-01-07T06:48:00.979Z,99188.56
2023-01-07T06:50:28.005Z,99187.53
2023-01-07T06:52:54.803Z,99193.19
2023-01-07T06:55:21.825Z,99192.50
2023-01-07T06:57:48.604Z,99187.41
2023-01-07T07:00:15.825Z,99192.69
2023-01-07T07:02:42.649Z,99198.13
2023-01-07T07:05:10.876Z,99189.31
2023-01-07T07:07:37.608Z,99194.78
2023-01-07T07:10:07.547Z,99201.97
2023-01-07T07:12:35.319Z,99195.63
2023-01-07T07:15:02.417Z,99200.91
2023-01-07T07:17:29.238Z,99203.59
2023-01-07T07:19:56.317Z,99203.59
2023-01-07T07:22:23.067Z,99209.63
2023-01-07T07:24:50.099Z,99208.97
2023-01-07T07:27:18.011Z,99208.03
2023-01-07T07:29:45.086Z,99208.97
2023-01-07T07:32:11.909Z,99207.84
2023-01-07T07:34:39.093Z,99209.25
2023-01-07T07:37:05.855Z,99212.53
2023-01-07T07:39:33.750Z,99208.97
2023-01-07T07:42:04.464Z,99210.63
2023-01-07T07:44:31.580Z,99220.28
2023-01-07T07:46:58.371Z,99214.34
2023-01-07T07:49:25.445Z,99218.16
2023-01-07T07:51:52.314Z,99215.47
2023-01-07T07:54:19.408Z,99205.78
2023-01-07T07:56:46.176Z,99208.38
2023-01-07T07:59:13.204Z,99203.09
2023-01-07T08:01:40.100Z,99208.47
2023-01-07T08:04:07.347Z,99213.66
2023-01-07T08:06:34.370Z,99206.56
2023-01-07T08:09:01.508Z,99203.00
2023-01-07T08:11:28.255Z,99210.13
2023-01-07T08:13:55.344Z,99202.91
2023-01-07T08:16:22.317Z,99203.69
2023-01-07T08:18:49.467Z,99197.19
2023-01-07T08:21:16.264Z,99196.94
2023-01-07T08:23:43.463Z,99207.44
2023-01-07T08:26:10.231Z,99206.50
2023-01-07T08:28:37.696Z,99201.91
2023-01-07T08:31:05.354Z,99193.66
2023-01-07T08:33:37.590Z,99201.53
2023-01-07T08:36:09.400Z,99200.13
2023-01-07T08:38:39.172Z,99197.44
2023-01-07T08:41:05.934Z,99197.25
2023-01-07T08:43:33.538Z,99191.78
2023-01-07T08:46:00.259Z,99196.00
2023-01-07T08:48:27.351Z,99201.19
2023-01-07T08:50:54.349Z,99200.75
2023-01-07T08:53:22.071Z,99207.63
2023-01-07T08:55:49.278Z,99196.69
2023-01-07T08:58:16.357Z,99204.44
2023-01-07T09:00:43.132Z,99189.81
2023-01-07T09:03:10.287Z,99194.06
2023-01-07T09:05:37.045Z,99194.84
2023-01-07T09:08:04.396Z,99190.88
2023-01-07T09:10:31.188Z,99189.94
2023-01-07T09:12:58.349Z,99191.44
2023-01-07T09:15:25.192Z,99191.16
2023-01-07T09:17:52.315Z,99193.66
2023-01-07T09:20:19.331Z,99188.88
2023-01-07T09:22:46.504Z,99191.25
2023-01-07T09:25:13.341Z,99197.31
2023-01-07T09:27:40.679Z,99195.38
2023-01-07T09:30:09.457Z,99196.03
2023-01-07T09:32:36.701Z,99189.53
2023-01-07T09:35:04.712Z,99185.66
2023-01-07T09:37:31.963Z,99195.28
2023-01-07T09:40:00.394Z,99186.97
2023-01-07T09:42:45.976Z,99185.84
2023-01-07T09:45:23.735Z,99181.97
2023-01-07T09:47:53.386Z,99173.69
2023-01-07T09:50:38.555Z,99168.13
2023-01-07T09:53:17.917Z,99159.94
2023-01-07T09:56:11.030Z,99160.59
2023-01-07T09:58:31.734Z,99161.38
2023-01-07T10:01:04.614Z,99159.38
2023-01-07T10:03:40.880Z,99157.97
2023-01-07T10:06:42.304Z,99158.72
2023-01-07T10:09:48.214Z,99152.16
2023-01-07T10:12:31.492Z,99151.13
2023-01-07T10:15:01.912Z,99159.63
2023-01-07T10:17:43.993Z,99157.69
2023-01-07T10:20:50.130Z,99150.28
2023-01-07T10:23:21.714Z,99149.31
2023-01-07T10:25:50.476Z,99155.44
2023-01-07T10:28:41.156Z,99157.75
2023-01-07T10:31:17.825Z,99150.22
2023-01-07T10:33:44.603Z,99158.09
2023-01-07T10:36:28.920Z,99152.41
2023-01-07T10:39:10.865Z,99147.84
2023-01-07T10:41:50.603Z,99147.56
2023-01-07T10:44:37.634Z,99150.00
2023-01-07T10:47:32.299Z,99146.91
2023-01-07T10:50:23.958Z,99139.50
2023-01-07T10:53:24.999Z,99128.78
2023-01-07T10:56:05.014Z,99126.81
2023-01-07T10:58:39.832Z,99131.97
2023-01-07T11:01:07.569Z,99129.06
2023-01-07T11:03:34.806Z,99132.38
2023-01-07T11:06:04.935Z,99124.00
2023-01-07T11:08:42.320Z,99124.31
2023-01-07T11:11:19.594Z,99123.34
2023-01-07T11:14:10.018Z,99125.81
2023-01-07T11:16:39.729Z,99111.47
2023-01-07T11:19:08.193Z,99115.34
2023-01-07T11:21:44.694Z,99112.53
2023-01-07T11:24:34.651Z,99107.69
2023-01-07T11:27:10.697Z,99100.28
2023-01-07T11:29:41.594Z,99095.50
2023-01-07T11:32:20.745Z,99097.97
2023-01-07T11:35:01.884Z,99090.66
2023-01-07T11:37:36.496Z,99082.44
2023-01-07T11:40:18.259Z,99080.50
2023-01-07T11:42:48.866Z,99079.19
2023-01-07T11:45:22.075Z,99083.38
2023-01-07T11:47:50.283Z,99075.06
2023-01-07T11:50:41.122Z,99068.69
2023-01-07T11:53:14.074Z,99069.22
2023-01-07T11:56:02.555Z,99062.84
2023-01-07T11:58:31.530Z,99058.94
2023-01-07T12:01:08.045Z,99055.16
2023-01-07T12:03:39.992Z,99060.44
2023-01-07T12:06:11.667Z,99051.38
2023-01-07T12:08:42.210Z,99048.44
2023-01-07T12:11:10.493Z,99044.03
2023-01-07T12:13:37.638Z,99041.97
2023-01-07T12:16:05.918Z,99039.38
2023-01-07T12:18:52.066Z,99032.25
2023-01-07T12:21:22.179Z,99036.69
2023-01-07T12:24:23.085Z,99027.59
2023-01-07T12:26:53.069Z,99030.97
2023-01-07T12:29:25.753Z,99029.13
2023-01-07T12:32:28.162Z,99029.13
2023-01-07T12:35:21.457Z,99022.97
2023-01-07T12:37:48.602Z,99024.56
2023-01-07T12:40:18.372Z,99023.72
2023-01-07T12:42:50.927Z,99017.22
2023-01-07T12:45:34.788Z,99017.47
2023-01-07T12:48:04.476Z,99010.44
2023-01-07T12:50:47.008Z,99009.59
2023-01-07T12:53:40.752Z,99006.91
2023-01-07T12:56:12.937Z,98997.19
2023-01-07T12:58:45.339Z,99005.28
2023-01-07T13:01:16.124Z,98991.69
2023-01-07T13:03:50.683Z,98993.66
2023-01-07T13:06:51.552Z,98995.34
2023-01-07T13:09:29.586Z,98981.84
2023-01-07T13:12:42.559Z,98987.41
2023-01-07T13:15:33.699Z,98991.69
2023-01-07T13:18:17.517Z,98989.22
2023-01-07T13:20:56.850Z,98983.09
2023-01-07T13:23:45.527Z,98987.41
2023-01-07T13:26:25.998Z,98983.94
2023-01-07T13:29:23.619Z,98985.31
2023-01-07T13:32:02.840Z,98983.72
2023-01-07T13:34:48.367Z,98978.44
2023-01-07T13:37:43.009Z,98990.09
2023-01-07T13:40:21.823Z,98985.91
2023-01-07T13:42:55.648Z,98986.75
2023-01-07T13:45:30.181Z,98990.44
2023-01-07T13:47:58.947Z,98990.56
2023-01-07T13:50:39.789Z,98986.13
2023-01-07T13:53:27.714Z,98981.50
2023-01-07T13:55:57.872Z,98988.59
2023-01-07T13:58:31.122Z,98984.72
2023-01-07T14:01:13.850Z,98983.19
2023-01-07T14:03:56.277Z,98967.84
2023-01-07T14:06:23.974Z,98976.16
2023-01-07T14:08:55.230Z,98979.09
2023-01-07T14:11:31.114Z,98973.81
2023-01-07T14:14:17.785Z,98982.03
2023-01-07T14:16:47.626Z,98984.72
2023-01-07T14:19:26.880Z,98977.63
2023-01-07T14:22:18.361Z,98972.22
2023-01-07T14:24:57.858Z,98977.50
2023-01-07T14:27:43.036Z,98973.09
2023-01-07T14:30:27.304Z,98976.75
2023-01-07T14:33:03.918Z,98976.75
2023-01-07T14:35:39.649Z,98980.31
2023-01-07T14:38:39.446Z,98978.59
2023-01-07T14:41:13.354Z,98977.84
2023-01-07T14:43:46.104Z,98971.47
2023-01-07T14:46:22.420Z,98966.94
2023-01-07T14:48:58.111Z,98961.66
2023-01-07T14:52:01.156Z,98966.94
2023-01-07T14:54:46.809Z,98956.38
2023-01-07T14:57:37.144Z,98962.75
2023-01-07T15:00:22.891Z,98952.06
2023-01-07T15:02:53.226Z,98950.38
2023-01-07T15:05:51.057Z,98939.69
2023-01-07T15:08:38.421Z,98944.47
2023-01-07T15:11:36.964Z,98941.78
2023-01-07T15:14:23.935Z,98942.00
2023-01-07T15:16:53.602Z,98936.72
2023-01-07T15:19:22.040Z,98932.28
2023-01-07T15:21:59.357Z,98932.56
2023-01-07T15:24:41.805Z,98933.63
2023-01-07T15:27:19.488Z,98935.59
2023-01-07T15:30:03.937Z,98926.88
2023-01-07T15:32:30.740Z,98928.81
2023-01-07T15:34:58.120Z,98930.75
2023-01-07T15:37:24.876Z,98930.88
2023-01-07T15:39:56.461Z,98926.72
2023-01-07T15:42:24.410Z,98931.47
2023-01-07T15:44:55.943Z,98928.78
2023-01-07T15:47:33.735Z,98920.91
2023-01-07T15:50:25.024Z,98923.94
2023-01-07T15:52:55.048Z,98930.31
2023-01-07T15:55:27.640Z,98933.88
2023-01-07T15:57:59.749Z,98931.28
2023-01-07T16:00:26.858Z,98933.38
2023-01-07T16:02:53.751Z,98929.06
2023-01-07T16:05:21.039Z,98931.97
2023-01-07T16:07:57.735Z,98934.03
2023-01-07T16:10:30.049Z,98929.63
2023-01-07T16:12:58.437Z,98930.59
2023-01-07T16:15:36.223Z,98934.25
2023-01-07T16:18:05.096Z,98931.78
2023-01-07T16:20:34.915Z,98927.50
2023-01-07T16:23:08.740Z,98931.25
2023-01-07T16:26:06.375Z,98926.00
2023-01-07T16:28:40.976Z,98925.25
2023-01-07T16:31:10.907Z,98922.66
2023-01-07T16:33:37.865Z,98923.78
2023-01-07T16:36:07.290Z,98909.66
2023-01-07T16:38:34.091Z,98924.09
2023-01-07T16:41:01.222Z,98920.66
2023-01-07T16:43:40.334Z,98916.34
2023-01-07T16:46:09.491Z,98912.91
2023-01-07T16:48:36.380Z,98914.13
2023-01-07T16:51:03.514Z,98906.03
2023-01-07T16:53:32.299Z,98906.34
2023-01-07T16:56:02.507Z,98901.06
2023-01-07T16:58:30.659Z,98896.75
2023-01-07T17:00:59.844Z,98899.69
2023-01-07T17:03:26.837Z,98897.09
2023-01-07T17:05:58.790Z,98899.13
2023-01-07T17:08:25.758Z,98892.78
2023-01-07T17:10:57.968Z,98895.81
2023-01-07T17:13:24.707Z,98899.59
2023-01-07T17:15:51.821Z,98892.59
2023-01-07T17:18:29.059Z,98894.53
2023-01-07T17:20:56.176Z,98891.09
2023-01-07T17:23:26.287Z,98888.84
2023-01-07T17:26:16.821Z,98885.41
2023-01-07T17:28:46.269Z,98890.78
2023-01-07T17:31:13.391Z,98890.25
2023-01-07T17:33:40.207Z,98877.88
2023-01-07T17:36:25.414Z,98881.44
2023-01-07T17:38:52.933Z,98879.72
2023-01-07T17:41:40.099Z,98875.13
2023-01-07T17:44:07.993Z,98873.59
2023-01-07T17:47:17.810Z,98876.91
2023-01-07T17:49:45.332Z,98879.28
2023-01-07T17:52:12.453Z,98887.59
2023-01-07T17:54:39.167Z,98881.56
2023-01-07T17:57:06.204Z,98883.50
2023-01-07T17:59:33.114Z,98882.50
2023-01-07T18:02:00.688Z,98874.56
2023-01-07T18:04:27.638Z,98877.38
2023-01-07T18:06:54.718Z,98877.59
2023-01-07T18:09:21.541Z,98877.06
2023-01-07T18:12:20.995Z,98883.59
2023-01-07T18:14:47.845Z,98883.91
2023-01-07T18:17:14.901Z,98883.72
2023-01-07T18:19:41.692Z,98880.19
2023-01-07T18:22:08.842Z,98882.13
2023-01-07T18:24:35.653Z,98878.78
2023-01-07T18:27:02.707Z,98882.22
2023-01-07T18:29:29.441Z,98885.34
2023-01-07T18:31:56.605Z,98885.44
2023-01-07T18:34:23.447Z,98879.31
2023-01-07T18:36:50.572Z,98873.72
2023-01-07T18:39:19.645Z,98882.09
2023-01-07T18:41:48.834Z,98877.69
2023-01-07T18:44:17.123Z,98889.31
2023-01-07T18:46:44.231Z,98876.19
2023-01-07T18:49:11.595Z,98879.09
2023-01-07T18:51:38.661Z,98872.53
2023-01-07T18:54:06.036Z,98870.50
2023-01-07T18:56:33.101Z,98870.91
2023-01-07T18:58:59.856Z,98866.72
2023-01-07T19:01:27.030Z,98868.00
2023-01-07T19:03:54.010Z,98866.50
2023-01-07T19:06:21.135Z,98860.47
2023-01-07T19:08:47.899Z,98859.59
2023-01-07T19:11:15.127Z,98858.44
2023-01-07T19:13:42.077Z,98860.38
2023-01-07T19:16:12.656Z,98866.06
2023-01-07T19:18:39.540Z,98864.53
2023-01-07T19:21:08.361Z,98853.03
2023-01-07T19:23:35.152Z,98858.72
2023-01-07T19:26:03.781Z,98857.03
2023-01-07T19:28:32.688Z,98853.69
2023-01-07T19:30:59.808Z,98850.75
2023-01-07T19:33:26.653Z,98853.78
2023-01-07T19:36:03.952Z,98855.81
2023-01-07T19:38:30.868Z,98858.50
2023-01-07T19:40:58.100Z,98860.41
2023-01-07T19:43:24.955Z,98859.56
2023-01-07T19:45:55.968Z,98843.84
2023-01-07T19:48:23.115Z,98839.91
2023-01-07T19:50:54.867Z,98839.25
2023-01-07T19:53:21.821Z,98842.81
2023-01-07T19:55:48.952Z,98849.03
2023-01-07T19:58:16.488Z,98845.78
2023-01-07T20:00:43.936Z,98845.78
2023-01-07T20:03:10.969Z,98841.72
2023-01-07T20:05:38.438Z,98838.44
2023-01-07T20:08:05.278Z,98833.75
2023-01-07T20:10:32.387Z,98828.53
2023-01-07T20:12:59.236Z,98832.09
2023-01-07T20:15:26.441Z,98827.78
2023-01-07T20:17:53.220Z,98833.28
2023-01-07T20:20:20.374Z,98831.13
2023-01-07T20:22:48.600Z,98829.59
2023-01-07T20:25:15.763Z,98819.19
2023-01-07T20:27:42.580Z,98816.06
2023-01-07T20:30:11.028Z,98816.31
2023-01-07T20:32:37.895Z,98813.63
2023-01-07T20:35:05.480Z,98813.63
2023-01-07T20:37:32.361Z,98811.53
2023-01-07T20:39:59.493Z,98809.50
2023-01-07T20:42:27.130Z,98806.91
2023-01-07T20:44:54.269Z,98801.44
2023-01-07T20:47:21.111Z,98799.84
2023-01-07T20:49:48.237Z,98797.25
2023-01-07T20:52:15.077Z,98800.03
2023-01-07T20:54:42.184Z,98798.97
2023-01-07T20:57:09.033Z,98795.41
2023-01-07T20:59:36.209Z,98794.03
2023-01-07T21:02:03.055Z,98798.97
2023-01-07T21:04:30.465Z,98796.50
2023-01-07T21:06:57.412Z,98794.47
2023-01-07T21:09:24.552Z,98796.28
2023-01-07T21:11:51.355Z,98796.50
2023-01-07T21:14:18.540Z,98791.88
2023-01-07T21:16:45.398Z,98792.72
2023-01-07T21:19:12.603Z,98789.72
2023-01-07T21:21:39.348Z,98784.03
2023-01-07T21:24:06.804Z,98773.50
2023-01-07T21:26:33.818Z,98770.69
2023-01-07T21:29:00.910Z,98774.13
2023-01-07T21:31:34.855Z,98770.59
2023-01-07T21:34:01.977Z,98772.19
2023-01-07T21:36:28.762Z,98766.72
2023-01-07T21:38:57.462Z,98766.97
2023-01-07T21:41:24.571Z,98765.34
2023-01-07T21:43:51.688Z,98759.09
2023-01-07T21:46:19.096Z,98764.69
2023-01-07T21:48:47.194Z,98769.19
2023-01-07T21:51:32.198Z,98773.69
2023-01-07T21:53:59.373Z,98760.16
2023-01-07T21:56:27.567Z,98761.00
2023-01-07T21:58:54.694Z,98768.13
2023-01-07T22:01:21.694Z,98765.75
2023-01-07T22:03:49.480Z,98758.97
2023-01-07T22:06:21.474Z,98768.75
2023-01-07T22:08:48.855Z,98761.66
2023-01-07T22:11:17.113Z,98763.38
2023-01-07T22:13:44.188Z,98761.34
2023-01-07T22:16:10.989Z,98768.75
2023-01-07T22:18:38.149Z,98761.66
2023-01-07T22:21:05.022Z,98762.59
2023-01-07T22:23:32.081Z,98758.88
2023-01-07T22:26:05.395Z,98754.56
2023-01-07T22:28:33.542Z,98750.47
2023-01-07T22:31:01.704Z,98750.56
2023-01-07T22:33:28.807Z,98752.06
2023-01-07T22:35:56.492Z,98742.72
2023-01-07T22:38:23.631Z,98739.63
2023-01-07T22:40:50.495Z,98743.47
2023-01-07T22:43:18.043Z,98743.81
2023-01-07T22:45:54.086Z,98739.28
2023-01-07T22:48:23.959Z,98739.09
2023-01-07T22:50:55.620Z,98737.16
2023-01-07T22:53:22.744Z,98731.78
2023-01-07T22:55:49.561Z,98734.75
2023-01-07T22:58:17.086Z,98727.59
2023-01-07T23:00:52.539Z,98729.41
2023-01-07T23:03:20.277Z,98720.59
2023-01-07T23:05:47.116Z,98713.38
2023-01-07T23:08:14.198Z,98712.53
2023-01-07T23:10:41.248Z,98708.22
2023-01-07T23:13:08.424Z,98710.06
2023-01-07T23:15:35.591Z,98713.81
2023-01-07T23:18:03.215Z,98712.44
2023-01-07T23:20:30.123Z,98711.69
2023-01-07T23:22:57.209Z,98709.00
2023-01-07T23:25:24.016Z,98704.69
2023-01-07T23:27:51.157Z,98702.00
2023-01-07T23:30:18.099Z,98697.81
2023-01-07T23:32:45.344Z,98695.03
2023-01-07T23:35:12.538Z,98694.16
2023-01-07T23:37:39.722Z,98692.91
2023-01-07T23:40:07.351Z,98692.25
2023-01-07T23:42:34.704Z,98682.47
2023-01-07T23:45:01.559Z,98679.78
2023-01-07T23:47:28.669Z,98677.31
2023-01-07T23:49:55.493Z,98684.41
2023-01-07T23:52:22.530Z,98682.31
2023-01-07T23:54:49.356Z,98675.25
2023-01-07T23:57:16.536Z,98678.69
2023-01-07T23:59:43.946Z,98679.34
